createdAt,value
2019-05-03T03:00:58.943Z,99.90
2019-05-03T03:03:27.848Z,99.90
2019-05-03T03:05:57.478Z,99.90
2019-05-03T03:08:28.210Z,99.90
2019-05-03T03:10:59.682Z,99.90
2019-05-03T03:13:29.470Z,99.90
2019-05-03T03:15:59.258Z,99.90
2019-05-03T03:18:28.126Z,99.90
2019-05-03T03:20:56.698Z,99.90
2019-05-03T03:23:26.876Z,99.90
2019-05-03T03:25:56.037Z,99.90
2019-05-03T03:28:25.430Z,99.90
2019-05-03T03:31:31.304Z,99.90
2019-05-03T03:34:07.790Z,99.90
2019-05-03T03:36:54.460Z,99.90
2019-05-03T03:39:08.079Z,99.90
2019-05-03T03:41:36.648Z,99.90
2019-05-03T03:44:05.831Z,99.90
2019-05-03T03:46:35.853Z,99.90
2019-05-03T03:49:07.079Z,99.90
2019-05-03T03:51:35.194Z,99.90
2019-05-03T03:54:06.078Z,99.90
2019-05-03T03:56:40.908Z,99.90
2019-05-03T03:59:05.893Z,99.90
2019-05-03T04:01:35.081Z,99.90
2019-05-03T04:04:05.526Z,99.90
2019-05-03T04:06:40.630Z,99.90
2019-05-03T04:09:09.568Z,99.90
2019-05-03T04:11:38.253Z,99.90
2019-05-03T04:14:09.819Z,99.90
2019-05-03T04:16:57.471Z,99.90
2019-05-03T04:19:29.975Z,99.90
2019-05-03T04:21:58.839Z,99.90
2019-05-03T04:24:27.611Z,99.90
2019-05-03T04:27:15.489Z,99.90
2019-05-03T04:29:36.031Z,99.90
2019-05-03T04:32:06.061Z,99.90
2019-05-03T04:34:35.900Z,99.90
2019-05-03T04:37:05.421Z,99.90
2019-05-03T04:39:35.993Z,99.90
2019-05-03T04:42:06.797Z,99.90
2019-05-03T04:44:35.949Z,99.90
2019-05-03T04:47:06.819Z,99.90
2019-05-03T04:49:36.271Z,99.90
2019-05-03T04:52:05.757Z,99.90
2019-05-03T04:54:58.117Z,99.90
2019-05-03T04:57:40.003Z,99.90
2019-05-03T04:59:57.156Z,99.90
2019-05-03T05:02:26.599Z,99.90
2019-05-03T05:04:55.697Z,99.90
2019-05-03T05:07:26.192Z,99.90
2019-05-03T05:09:56.136Z,99.90
2019-05-03T05:12:25.454Z,99.90
2019-05-03T05:14:56.416Z,99.90
2019-05-03T05:17:38.683Z,99.90
2019-05-03T05:20:25.403Z,99.90
2019-05-03T05:22:54.399Z,99.90
2019-05-03T05:25:25.207Z,99.90
2019-05-03T05:28:05.875Z,99.90
2019-05-03T05:30:35.296Z,99.90
2019-05-03T05:33:05.406Z,99.90
2019-05-03T05:35:35.206Z,99.90
2019-05-03T05:38:04.691Z,99.90
2019-05-03T05:40:34.904Z,99.90
2019-05-03T05:43:04.887Z,99.90
2019-05-03T05:45:34.858Z,99.90
2019-05-03T05:48:07.270Z,99.90
2019-05-03T05:50:41.727Z,99.90
2019-05-03T05:53:10.311Z,99.90
2019-05-03T05:55:56.594Z,99.90
2019-05-03T05:58:32.270Z,99.90
2019-05-03T06:01:08.798Z,99.90
2019-05-03T06:03:37.410Z,99.90
2019-05-03T06:06:07.870Z,99.90
2019-05-03T06:09:01.802Z,99.90
2019-05-03T06:11:55.277Z,99.90
2019-05-03T06:14:27.963Z,99.90
2019-05-03T06:17:08.587Z,99.90
2019-05-03T06:19:56.271Z,99.90
2019-05-03T06:22:31.915Z,99.90
2019-05-03T06:25:06.405Z,99.90
2019-05-03T06:27:37.664Z,99.90
2019-05-03T06:30:15.119Z,99.90
2019-05-03T06:32:44.848Z,99.90
2019-05-03T06:35:15.173Z,99.90
2019-05-03T06:37:45.852Z,99.90
2019-05-03T06:40:15.013Z,99.90
2019-05-03T06:42:52.361Z,99.90
2019-05-03T06:45:15.089Z,99.90
2019-05-03T06:47:46.070Z,99.90
2019-05-03T06:50:14.516Z,99.90
2019-05-03T06:52:44.556Z,99.90
2019-05-03T06:55:14.509Z,99.90
2019-05-03T06:57:49.378Z,99.90
2019-05-03T07:00:35.065Z,99.90
2019-05-03T07:03:16.955Z,99.90
2019-05-03T07:06:04.548Z,99.90
2019-05-03T07:09:01.267Z,99.90
2019-05-03T07:11:29.851Z,99.90
2019-05-03T07:13:58.418Z,99.90
2019-05-03T07:16:27.035Z,99.90
2019-05-03T07:18:58.131Z,99.90
2019-05-03T07:21:25.927Z,99.90
2019-05-03T07:23:55.136Z,99.90
2019-05-03T07:26:25.410Z,99.90
2019-05-03T07:28:54.624Z,99.90
2019-05-03T07:31:25.352Z,99.90
2019-05-03T07:33:55.046Z,99.90
2019-05-03T07:36:28.099Z,99.90
2019-05-03T07:38:55.564Z,99.90
2019-05-03T07:41:27.042Z,99.90
2019-05-03T07:43:55.009Z,99.90
2019-05-03T07:46:24.730Z,99.90
2019-05-03T07:48:54.794Z,99.90
2019-05-03T07:51:24.838Z,99.90
2019-05-03T07:53:55.589Z,99.90
2019-05-03T07:56:27.335Z,99.90
2019-05-03T07:59:02.663Z,99.90
2019-05-03T08:01:32.023Z,99.90
2019-05-03T08:04:00.599Z,99.90
2019-05-03T08:06:29.206Z,99.90
2019-05-03T08:08:57.782Z,99.90
2019-05-03T08:11:26.389Z,99.90
2019-05-03T08:13:55.530Z,99.90
2019-05-03T08:16:25.146Z,99.90
2019-05-03T08:18:55.807Z,99.90
2019-05-03T08:21:25.238Z,99.90
2019-05-03T08:23:55.718Z,99.90
2019-05-03T08:26:25.667Z,99.90
2019-05-03T08:28:54.811Z,99.90
2019-05-03T08:31:35.363Z,99.90
2019-05-03T08:34:29.334Z,99.90
2019-05-03T08:37:18.947Z,99.90
2019-05-03T08:39:47.522Z,99.90
2019-05-03T08:42:22.150Z,99.70
2019-05-03T08:44:50.721Z,98.60
2019-05-03T08:47:19.298Z,98.50
2019-05-03T08:49:48.503Z,99.20
2019-05-03T08:52:17.082Z,99.70
2019-05-03T08:54:45.663Z,99.90
2019-05-03T08:57:14.967Z,98.10
2019-05-03T08:59:44.616Z,99.40
2019-05-03T09:02:14.301Z,99.70
2019-05-03T09:04:45.986Z,96.80
2019-05-03T09:07:14.850Z,93.90
2019-05-03T09:10:00.823Z,94.60
2019-05-03T09:12:48.787Z,95.00
2019-05-03T09:15:17.382Z,97.30
2019-05-03T09:17:45.957Z,94.90
2019-05-03T09:20:15.541Z,94.40
2019-05-03T09:22:45.297Z,94.50
2019-05-03T09:25:15.464Z,94.70
2019-05-03T09:27:44.697Z,94.00
2019-05-03T09:30:14.492Z,94.30
2019-05-03T09:32:44.811Z,93.20
2019-05-03T09:35:26.803Z,93.80
2019-05-03T09:37:44.959Z,95.30
2019-05-03T09:40:15.156Z,95.40
2019-05-03T09:42:44.491Z,96.60
2019-05-03T09:45:15.246Z,95.60
2019-05-03T09:47:44.849Z,95.70
2019-05-03T09:50:15.576Z,95.40
2019-05-03T09:52:46.832Z,96.50
2019-05-03T09:55:19.926Z,95.90
2019-05-03T09:57:48.535Z,96.70
2019-05-03T10:00:18.293Z,97.40
2019-05-03T10:02:46.850Z,96.70
2019-05-03T10:05:15.820Z,96.70
2019-05-03T10:07:45.569Z,97.90
2019-05-03T10:10:15.386Z,98.30
2019-05-03T10:12:44.163Z,97.60
2019-05-03T10:15:15.230Z,98.00
2019-05-03T10:17:51.236Z,97.10
2019-05-03T10:20:21.235Z,96.90
2019-05-03T10:22:49.897Z,97.80
2019-05-03T10:25:18.543Z,97.00
2019-05-03T10:27:47.131Z,97.20
2019-05-03T10:30:19.466Z,97.50
2019-05-03T10:32:52.634Z,94.80
2019-05-03T10:35:21.230Z,95.20
2019-05-03T10:37:50.156Z,95.50
2019-05-03T10:40:25.427Z,93.20
2019-05-03T10:42:55.264Z,92.40
2019-05-03T10:45:27.845Z,92.20
2019-05-03T10:47:54.643Z,90.80
2019-05-03T10:50:25.211Z,92.30
2019-05-03T10:52:59.975Z,92.60
2019-05-03T10:55:28.530Z,92.40
2019-05-03T10:58:11.191Z,92.70
2019-05-03T11:00:46.290Z,92.60
2019-05-03T11:03:11.727Z,92.50
2019-05-03T11:05:40.315Z,92.00
2019-05-03T11:08:08.878Z,90.80
2019-05-03T11:10:37.514Z,92.50
2019-05-03T11:13:06.088Z,92.20
2019-05-03T11:15:35.104Z,91.60
2019-05-03T11:18:05.614Z,91.50
2019-05-03T11:20:34.793Z,91.10
2019-05-03T11:23:05.990Z,91.60
2019-05-03T11:25:34.874Z,90.90
2019-05-03T11:28:08.227Z,91.50
2019-05-03T11:30:36.790Z,90.10
2019-05-03T11:33:19.038Z,90.80
2019-05-03T11:36:06.302Z,90.00
2019-05-03T11:38:45.347Z,89.40
2019-05-03T11:41:16.466Z,87.70
2019-05-03T11:43:44.369Z,90.10
2019-05-03T11:46:13.115Z,83.60
2019-05-03T11:48:41.810Z,85.80
2019-05-03T11:51:10.693Z,83.70
2019-05-03T11:53:39.250Z,83.70
2019-05-03T11:56:07.846Z,88.40
2019-05-03T11:58:36.437Z,79.80
2019-05-03T12:01:18.871Z,85.00
2019-05-03T12:03:48.538Z,77.20
2019-05-03T12:06:17.106Z,74.20
2019-05-03T12:08:46.042Z,80.50
2019-05-03T12:11:15.122Z,77.40
2019-05-03T12:13:45.624Z,87.00
2019-05-03T12:16:20.320Z,75.00
2019-05-03T12:18:52.077Z,75.30
2019-05-03T12:21:17.804Z,79.40
2019-05-03T12:23:46.257Z,81.90
2019-05-03T12:26:17.353Z,74.20
2019-05-03T12:28:45.531Z,70.70
2019-05-03T12:31:29.422Z,70.10
2019-05-03T12:33:45.967Z,78.60
2019-05-03T12:36:15.460Z,80.10
2019-05-03T12:38:45.022Z,77.50
2019-05-03T12:41:15.037Z,80.40
2019-05-03T12:43:44.035Z,76.30
2019-05-03T12:46:12.654Z,76.90
2019-05-03T12:48:41.615Z,77.90
2019-05-03T12:51:10.532Z,79.00
2019-05-03T12:53:39.408Z,77.10
2019-05-03T12:56:12.684Z,75.80
2019-05-03T12:58:48.278Z,75.90
2019-05-03T13:01:41.761Z,82.80
2019-05-03T13:04:15.160Z,80.40
2019-05-03T13:06:46.828Z,72.60
2019-05-03T13:09:16.021Z,72.30
2019-05-03T13:11:55.353Z,75.60
2019-05-03T13:14:16.733Z,77.50
2019-05-03T13:16:45.307Z,73.20
2019-05-03T13:19:15.191Z,72.50
2019-05-03T13:21:45.052Z,72.70
2019-05-03T13:24:22.962Z,72.00
2019-05-03T13:26:45.692Z,72.00
2019-05-03T13:29:15.319Z,73.70
2019-05-03T13:31:57.499Z,72.40
2019-05-03T13:34:15.924Z,74.40
2019-05-03T13:36:45.660Z,75.40
2019-05-03T13:39:14.895Z,76.30
2019-05-03T13:41:45.366Z,78.20
2019-05-03T13:44:15.584Z,74.80
2019-05-03T13:46:44.717Z,76.70
2019-05-03T13:49:13.414Z,75.20
2019-05-03T13:51:42.332Z,78.00
2019-05-03T13:54:10.893Z,72.60
2019-05-03T13:56:39.452Z,73.50
2019-05-03T13:59:18.543Z,71.90
2019-05-03T14:01:38.931Z,72.40
2019-05-03T14:04:07.634Z,72.90
2019-05-03T14:06:36.766Z,74.80
2019-05-03T14:09:06.851Z,76.70
2019-05-03T14:11:35.586Z,70.70
2019-05-03T14:14:04.675Z,74.00
2019-05-03T14:16:34.042Z,73.50
2019-05-03T14:19:08.809Z,71.70
2019-05-03T14:21:45.083Z,71.40
2019-05-03T14:24:15.635Z,74.00
2019-05-03T14:26:44.743Z,73.10
2019-05-03T14:29:14.930Z,71.40
2019-05-03T14:31:45.380Z,75.00
2019-05-03T14:34:16.959Z,76.90
2019-05-03T14:36:45.022Z,74.70
2019-05-03T14:39:15.083Z,75.90
2019-05-03T14:41:46.591Z,76.50
2019-05-03T14:44:15.575Z,77.10
2019-05-03T14:46:45.819Z,75.30
2019-05-03T14:49:14.872Z,76.70
2019-05-03T14:51:45.411Z,75.90
2019-05-03T14:54:14.519Z,75.50
2019-05-03T14:56:56.546Z,75.70
2019-05-03T14:59:47.409Z,75.70
2019-05-03T15:02:48.397Z,72.70
2019-05-03T15:05:14.976Z,76.70
2019-05-03T15:07:45.866Z,77.40
2019-05-03T15:10:15.041Z,79.60
2019-05-03T15:12:45.202Z,78.90
2019-05-03T15:15:14.868Z,79.10
2019-05-03T15:17:45.559Z,78.50
2019-05-03T15:20:14.817Z,75.90
2019-05-03T15:22:45.400Z,76.90
2019-05-03T15:25:13.845Z,78.50
2019-05-03T15:27:44.643Z,77.60
2019-05-03T15:30:13.066Z,77.30
2019-05-03T15:32:56.203Z,77.20
2019-05-03T15:35:11.999Z,77.20
2019-05-03T15:37:40.554Z,78.50
2019-05-03T15:40:09.755Z,82.90
2019-05-03T15:42:40.898Z,78.50
2019-05-03T15:45:35.154Z,80.40
2019-05-03T15:48:15.124Z,80.90
2019-05-03T15:50:44.677Z,75.70
2019-05-03T15:53:15.034Z,79.30
2019-05-03T15:55:43.598Z,79.70
2019-05-03T15:58:12.163Z,79.90
2019-05-03T16:00:40.820Z,80.30
2019-05-03T16:03:11.266Z,79.00
2019-05-03T16:05:39.838Z,81.80
2019-05-03T16:08:08.416Z,81.80
2019-05-03T16:10:37.324Z,80.80
2019-05-03T16:13:05.887Z,83.30
2019-05-03T16:15:35.185Z,79.00
2019-05-03T16:18:05.176Z,80.10
2019-05-03T16:20:34.185Z,79.00
2019-05-03T16:23:04.999Z,80.10
2019-05-03T16:25:35.508Z,80.90
2019-05-03T16:28:20.410Z,81.30
2019-05-03T16:30:55.568Z,80.90
2019-05-03T16:33:27.833Z,81.90
2019-05-03T16:35:54.903Z,82.30
2019-05-03T16:38:24.879Z,82.70
2019-05-03T16:40:54.484Z,82.60
2019-05-03T16:43:25.486Z,86.40
2019-05-03T16:45:55.157Z,84.00
2019-05-03T16:48:24.729Z,86.10
2019-05-03T16:50:53.506Z,84.50
2019-05-03T16:53:22.144Z,83.40
2019-05-03T16:55:50.711Z,83.10
2019-05-03T16:58:19.297Z,80.80
2019-05-03T17:00:47.885Z,81.30
2019-05-03T17:03:20.106Z,83.60
2019-05-03T17:06:09.234Z,81.90
2019-05-03T17:08:46.146Z,80.60
2019-05-03T17:11:16.862Z,80.10
2019-05-03T17:13:47.953Z,78.70
2019-05-03T17:16:16.064Z,76.80
2019-05-03T17:18:44.789Z,76.70
2019-05-03T17:21:14.612Z,79.10
2019-05-03T17:23:44.643Z,77.10
2019-05-03T17:26:14.932Z,78.40
2019-05-03T17:28:44.799Z,77.30
2019-05-03T17:31:13.499Z,78.60
2019-05-03T17:33:51.433Z,77.60
2019-05-03T17:36:12.478Z,81.40
2019-05-03T17:38:41.464Z,75.30
2019-05-03T17:41:19.274Z,78.10
2019-05-03T17:43:54.970Z,80.70
2019-05-03T17:46:25.410Z,79.90
2019-05-03T17:48:54.752Z,79.10
2019-05-03T17:51:41.182Z,82.10
2019-05-03T17:54:28.814Z,81.60
2019-05-03T17:57:05.902Z,84.10
2019-05-03T17:59:41.837Z,84.30
2019-05-03T18:02:32.599Z,85.40
2019-05-03T18:05:20.297Z,89.50
2019-05-03T18:08:20.047Z,89.30
2019-05-03T18:10:55.089Z,86.20
2019-05-03T18:13:24.775Z,85.30
2019-05-03T18:15:54.360Z,85.00
2019-05-03T18:18:24.731Z,86.70
2019-05-03T18:20:55.396Z,85.70
2019-05-03T18:23:24.643Z,83.60
2019-05-03T18:25:54.849Z,82.90
2019-05-03T18:28:25.020Z,84.00
2019-05-03T18:30:54.690Z,86.80
2019-05-03T18:33:24.734Z,88.20
2019-05-03T18:35:54.997Z,86.00
2019-05-03T18:38:25.255Z,86.40
2019-05-03T18:40:55.272Z,88.70
2019-05-03T18:43:31.946Z,90.80
2019-05-03T18:46:14.899Z,88.60
2019-05-03T18:48:44.574Z,90.00
2019-05-03T18:51:14.757Z,91.20
2019-05-03T18:53:45.274Z,88.80
2019-05-03T18:56:14.726Z,90.30
2019-05-03T18:58:44.857Z,88.70
2019-05-03T19:01:14.894Z,90.00
2019-05-03T19:03:45.579Z,90.70
2019-05-03T19:06:14.158Z,89.50
2019-05-03T19:09:01.329Z,89.30
2019-05-03T19:11:36.051Z,90.00
2019-05-03T19:14:06.715Z,92.00
2019-05-03T19:16:54.512Z,90.90
2019-05-03T19:19:25.949Z,91.20
2019-05-03T19:21:56.039Z,92.40
2019-05-03T19:24:25.381Z,91.60
2019-05-03T19:26:54.831Z,92.10
2019-05-03T19:29:25.008Z,91.20
2019-05-03T19:31:55.255Z,91.30
2019-05-03T19:34:24.309Z,91.70
2019-05-03T19:36:54.773Z,92.40
2019-05-03T19:39:25.259Z,93.80
2019-05-03T19:41:55.319Z,93.10
2019-05-03T19:44:24.092Z,94.00
2019-05-03T19:46:53.001Z,91.40
2019-05-03T19:49:21.586Z,93.30
2019-05-03T19:51:50.239Z,94.40
2019-05-03T19:54:18.823Z,92.20
2019-05-03T19:56:47.396Z,91.30
2019-05-03T19:59:35.066Z,93.30
2019-05-03T20:02:11.262Z,92.20
2019-05-03T20:05:14.957Z,92.80
2019-05-03T20:08:21.084Z,92.80
2019-05-03T20:10:50.242Z,92.50
2019-05-03T20:13:18.842Z,93.10
2019-05-03T20:15:47.508Z,92.20
2019-05-03T20:18:19.351Z,92.30
2019-05-03T20:20:47.946Z,92.90
2019-05-03T20:23:16.547Z,93.10
2019-05-03T20:25:45.118Z,92.70
2019-05-03T20:28:15.377Z,91.40
2019-05-03T20:30:45.241Z,93.80
2019-05-03T20:33:13.951Z,93.40
2019-05-03T20:35:42.544Z,92.00
2019-05-03T20:38:11.113Z,92.80
2019-05-03T20:40:39.708Z,91.70
2019-05-03T20:43:30.315Z,92.00
2019-05-03T20:46:05.030Z,90.90
2019-05-03T20:48:34.380Z,92.00
2019-05-03T20:51:03.098Z,91.00
2019-05-03T20:53:32.021Z,92.60
2019-05-03T20:56:00.593Z,93.10
2019-05-03T20:58:29.198Z,93.00
2019-05-03T21:00:57.759Z,94.10
2019-05-03T21:03:26.346Z,94.60
2019-05-03T21:05:55.358Z,94.50
2019-05-03T21:08:25.477Z,94.60
2019-05-03T21:10:55.204Z,93.50
2019-05-03T21:13:25.273Z,93.20
2019-05-03T21:16:11.983Z,93.50
2019-05-03T21:18:59.322Z,93.70
2019-05-03T21:21:36.135Z,95.60
2019-05-03T21:24:19.242Z,95.60
2019-05-03T21:26:48.114Z,95.90
2019-05-03T21:29:16.710Z,94.60
2019-05-03T21:31:45.310Z,95.30
2019-05-03T21:34:14.786Z,95.60
2019-05-03T21:36:45.213Z,95.80
2019-05-03T21:39:14.654Z,95.50
2019-05-03T21:41:45.069Z,96.00
2019-05-03T21:44:30.390Z,96.30
2019-05-03T21:47:04.712Z,95.60
2019-05-03T21:49:40.347Z,96.60
2019-05-03T21:52:08.914Z,95.50
2019-05-03T21:54:37.479Z,96.40
2019-05-03T21:57:06.134Z,96.50
2019-05-03T21:59:35.454Z,95.80
